Time;durP1;ratioP1;P1;durP2;ratioP2;P2;SDS_P1;SDS_P2;PMS_P1;PMS_P2;Temp;Humidity;BMP_temperature;BMP_pressure;BME280_temperature;BME280_humidity;BME280_pressure;Samples;Min_cycle;Max_cycle;Signal;HPM_P1;HPM_P2
2022/04/07 00:00:59;;;;;;;11.93;6.03;;;;;;;5.00;100.00;100244.94;30882676;28;20051;-69
2022/04/07 00:16:01;;;;;;;11.67;6.90;;;;;;;4.61;100.00;100247.41;30870472;28;20054;-69
2022/04/07 00:31:03;;;;;;;20.83;8.20;;;;;;;3.92;100.00;100278.69;30852586;28;20051;-70
2022/04/07 00:46:06;;;;;;;18.70;8.67;;;;;;;4.07;100.00;100266.94;30857110;28;20553;-71
2022/04/07 01:01:08;;;;;;;22.53;10.27;;;;;;;4.25;100.00;100254.41;30878039;28;20055;-71
2022/04/07 01:16:12;;;;;;;19.83;9.20;;;;;;;4.70;100.00;100228.25;30891223;28;20050;-70
2022/04/07 01:31:14;;;;;;;21.83;10.53;;;;;;;5.07;100.00;100239.59;30884759;28;20146;-70
2022/04/07 01:46:18;;;;;;;24.67;12.57;;;;;;;5.31;100.00;100240.09;30872051;28;20043;-70
2022/04/07 02:01:21;;;;;;;19.27;11.30;;;;;;;5.51;100.00;100249.38;30879093;28;20055;-70
2022/04/07 02:16:23;;;;;;;21.40;11.20;;;;;;;5.52;100.00;100253.63;30895762;28;20051;-69
2022/04/07 02:31:25;;;;;;;24.10;10.43;;;;;;;5.34;100.00;100264.31;30870244;28;20058;-70
2022/04/07 02:46:27;;;;;;;16.10;8.73;;;;;;;5.00;100.00;100253.00;30889270;28;20062;-70
2022/04/07 03:01:30;;;;;;;26.13;11.33;;;;;;;4.78;100.00;100251.34;30872516;28;20082;-73
2022/04/07 03:16:32;;;;;;;24.00;10.07;;;;;;;4.70;100.00;100257.84;30865151;28;20525;-69
2022/04/07 03:31:34;;;;;;;18.70;8.43;;;;;;;4.40;100.00;100256.09;30852556;28;20062;-71
2022/04/07 03:46:37;;;;;;;21.63;7.40;;;;;;;4.42;100.00;100261.88;30856025;28;20133;-71
2022/04/07 04:01:40;;;;;;;8.47;5.20;;;;;;;4.50;100.00;100268.03;30859582;28;20483;-71
2022/04/07 04:16:42;;;;;;;16.10;7.60;;;;;;;4.80;100.00;100262.50;30878905;28;20501;-70
2022/04/07 04:31:45;;;;;;;15.27;6.40;;;;;;;4.78;100.00;100289.00;30870499;28;20043;-71
2022/04/07 04:46:47;;;;;;;16.97;5.70;;;;;;;5.17;100.00;100299.25;30859506;28;20423;-69
2022/04/07 05:01:49;;;;;;;10.03;6.27;;;;;;;5.71;100.00;100279.44;30845167;28;20062;-71
2022/04/07 05:16:53;;;;;;;9.17;5.40;;;;;;;7.06;100.00;100263.31;30866040;28;20422;-69
2022/04/07 05:31:55;;;;;;;6.17;3.53;;;;;;;7.67;99.52;100259.19;30850292;28;20784;-70
2022/04/07 05:47:04;;;;;;;6.27;3.83;;;;;;;8.15;96.57;100242.28;30848469;28;20491;-70
2022/04/07 06:02:07;;;;;;;7.50;4.20;;;;;;;9.13;91.58;100236.34;30871920;28;20150;-70
2022/04/07 06:17:10;;;;;;;4.57;3.57;;;;;;;10.40;85.61;100247.34;30892387;28;20046;-80
2022/04/07 06:32:12;;;;;;;8.87;3.90;;;;;;;11.37;77.32;100238.19;30920550;28;20529;-80
2022/04/07 06:47:16;;;;;;;12.00;3.57;;;;;;;12.62;74.71;100236.84;30977170;28;20115;-81
2022/04/07 07:02:18;;;;;;;5.67;3.50;;;;;;;13.53;71.27;100232.78;30943988;28;20053;-81
2022/04/07 07:17:33;;;;;;;6.27;3.73;;;;;;;14.36;62.50;100220.84;30934018;28;20133;-81
2022/04/07 07:32:39;;;;;;;;;;;;;;;14.89;57.90;100219.00;30872563;28;20562;-78
2022/04/07 07:47:42;;;;;;;4.87;3.43;;;;;;;15.76;58.20;100212.69;30866780;28;19934;-78
2022/04/07 08:02:44;;;;;;;8.03;4.00;;;;;;;16.23;54.52;100197.91;30858543;28;20495;-76
2022/04/07 08:17:46;;;;;;;7.00;3.40;;;;;;;17.38;48.03;100174.06;30853953;28;20075;-75
2022/04/07 08:32:48;;;;;;;6.30;3.37;;;;;;;17.44;43.15;100151.47;30860843;28;20054;-79
2022/04/07 08:47:55;;;;;;;3.70;2.63;;;;;;;17.87;40.62;100129.00;30884166;28;20089;-74
2022/04/07 09:02:57;;;;;;;6.45;2.40;;;;;;;17.76;38.49;100128.75;30856183;28;20119;-74
2022/04/07 09:18:07;;;;;;;3.97;3.00;;;;;;;18.22;40.22;100074.25;30843020;28;20117;-76
2022/04/07 09:33:20;;;;;;;3.78;2.97;;;;;;;19.42;36.82;100033.94;30889488;28;20085;-81
2022/04/07 09:48:24;;;;;;;10.07;2.93;;;;;;;19.32;38.01;100018.81;30911278;28;20469;-80
2022/04/07 10:03:31;;;;;;;4.15;2.80;;;;;;;19.35;37.11;99993.09;30879057;28;20653;-81
2022/04/07 10:18:42;;;;;;;11.07;4.05;;;;;;;19.58;36.12;99976.88;30881486;28;20125;-80
2022/04/07 10:33:49;;;;;;;4.80;3.03;;;;;;;19.88;34.33;99950.63;30880703;28;20043;-75
2022/04/07 10:49:04;;;;;;;6.80;3.17;;;;;;;20.36;32.48;99922.50;30865166;28;20519;-79
2022/04/07 11:05:00;;;;;;;5.88;3.10;;;;;;;20.65;31.46;99900.19;30880156;28;20050;-75
2022/04/07 11:20:06;;;;;;;4.40;3.08;;;;;;;21.59;30.18;99867.97;30877071;28;20062;-77
2022/04/07 11:51:28;;;;;;;6.68;4.18;;;;;;;20.85;28.57;99829.56;30868064;28;20105;-82
2022/04/07 12:06:32;;;;;;;6.13;4.07;;;;;;;18.10;30.74;99810.81;30890629;28;20058;-83
2022/04/07 12:21:55;;;;;;;9.70;4.20;;;;;;;16.93;32.46;99774.63;30897382;28;20105;-73
2022/04/07 12:36:58;;;;;;;8.43;4.47;;;;;;;16.52;32.85;99783.75;30861299;28;20061;-73
2022/04/07 12:52:13;;;;;;;10.93;4.17;;;;;;;16.34;34.17;99736.03;30858015;28;20160;-74
2022/04/07 13:07:19;;;;;;;6.47;4.03;;;;;;;16.27;34.67;99711.75;30901932;28;20082;-79
2022/04/07 13:22:23;;;;;;;9.67;2.90;;;;;;;16.11;34.74;99711.38;30954165;28;20148;-85
2022/04/07 13:37:28;;;;;;;7.23;3.87;;;;;;;15.90;34.47;99686.56;31405563;22;20441;-86
2022/04/07 13:52:30;;;;;;;7.93;3.27;;;;;;;15.82;34.50;99658.03;31177922;28;20050;-85
2022/04/07 14:07:32;;;;;;;8.60;3.60;;;;;;;15.58;34.63;99624.41;31289216;22;20057;-85
2022/04/07 14:22:34;;;;;;;5.13;2.67;;;;;;;15.41;34.60;99602.09;31266071;28;20053;-76
2022/04/07 14:37:36;;;;;;;7.13;3.53;;;;;;;15.21;34.58;99588.97;31230935;28;20060;-75
2022/04/07 14:52:38;;;;;;;3.87;3.10;;;;;;;15.16;34.75;99548.59;31235624;28;20057;-74
2022/04/07 15:08:16;;;;;;;4.80;2.77;;;;;;;14.98;35.32;99521.34;31255573;28;20061;-79
2022/04/07 15:23:22;;;;;;;5.73;3.60;;;;;;;14.80;36.25;99491.34;31249692;28;20144;-85
2022/04/07 15:38:24;;;;;;;4.10;2.90;;;;;;;14.52;37.11;99475.06;31255232;28;20045;-82
2022/04/07 15:53:26;;;;;;;6.10;2.50;;;;;;;14.14;37.74;99450.25;31221956;28;20045;-77
2022/04/07 16:08:30;;;;;;;6.83;2.60;;;;;;;13.78;38.22;99419.06;31211888;28;20050;-78
2022/04/07 16:23:35;;;;;;;5.53;3.20;;;;;;;13.60;38.30;99398.03;31245269;28;20050;-84
2022/04/07 16:38:37;;;;;;;4.80;2.93;;;;;;;13.39;38.48;99384.53;31225075;28;20068;-82
2022/04/07 16:53:41;;;;;;;5.87;3.17;;;;;;;13.17;39.03;99366.38;31196205;28;20140;-78
2022/04/07 17:08:46;;;;;;;7.30;3.50;;;;;;;12.94;39.73;99375.09;31191620;28;20069;-76
2022/04/07 17:23:50;;;;;;;8.90;5.37;;;;;;;12.71;41.02;99379.13;31192558;28;20049;-83
2022/04/07 17:38:53;;;;;;;8.03;5.30;;;;;;;12.54;42.16;99370.44;31249011;28;20057;-83
2022/04/07 17:53:57;;;;;;;7.67;4.83;;;;;;;12.34;43.48;99355.69;31255331;28;20104;-76
2022/04/07 18:09:00;;;;;;;6.57;3.83;;;;;;;12.14;44.82;99343.22;31225277;28;20057;-77
2022/04/07 18:24:02;;;;;;;8.13;4.17;;;;;;;11.93;46.41;99312.16;31237667;28;20056;-79
2022/04/07 18:39:05;;;;;;;5.67;3.30;;;;;;;11.76;47.40;99291.81;31232705;28;20584;-76
2022/04/07 18:54:07;;;;;;;4.60;3.43;;;;;;;11.63;48.30;99267.41;31210963;28;20049;-76
2022/04/07 19:09:10;;;;;;;9.03;3.20;;;;;;;11.47;49.30;99243.16;31197390;28;20107;-76
2022/04/07 19:24:12;;;;;;;6.33;3.90;;;;;;;11.16;50.34;99207.78;31203646;28;20057;-76
2022/04/07 19:39:18;;;;;;;5.67;3.43;;;;;;;11.00;51.46;99189.00;31182023;28;20061;-76
2022/04/07 19:54:20;;;;;;;6.43;4.23;;;;;;;10.87;51.00;99163.84;31192044;28;20064;-75
2022/04/07 20:09:23;;;;;;;9.47;5.37;;;;;;;10.83;51.71;99141.53;31178763;28;20093;-76
2022/04/07 20:24:25;;;;;;;8.97;4.67;;;;;;;10.87;51.47;99131.25;31227942;28;20049;-76
2022/04/07 20:39:28;;;;;;;9.50;5.70;;;;;;;10.82;51.35;99112.84;31172027;28;20127;-76
2022/04/07 20:54:30;;;;;;;11.83;7.13;;;;;;;10.68;51.07;99103.25;31188404;28;20053;-75
2022/04/07 21:09:32;;;;;;;15.47;7.83;;;;;;;10.38;51.62;99074.88;31202333;28;20429;-75
2022/04/07 21:24:34;;;;;;;18.77;9.73;;;;;;;9.99;52.73;99053.72;31217204;28;20073;-76
2022/04/07 21:39:36;;;;;;;17.23;10.20;;;;;;;9.77;53.32;99038.19;31201037;28;20576;-75
2022/04/07 21:54:38;;;;;;;19.80;12.07;;;;;;;9.56;54.01;99009.06;31222388;28;20103;-75
2022/04/07 22:09:40;;;;;;;19.60;11.00;;;;;;;9.44;54.05;98999.03;31205999;28;20081;-75
2022/04/07 22:24:42;;;;;;;21.53;11.20;;;;;;;9.31;55.37;98963.09;31204473;28;20058;-76
2022/04/07 22:39:46;;;;;;;11.30;7.80;;;;;;;9.36;56.89;98938.16;31201062;28;20045;-75
2022/04/07 22:54:48;;;;;;;13.20;6.87;;;;;;;9.65;55.67;98925.19;31201831;28;20064;-74
2022/04/07 23:09:50;;;;;;;13.60;7.27;;;;;;;9.69;55.97;98895.22;31203993;28;20060;-75
2022/04/07 23:24:52;;;;;;;14.50;8.57;;;;;;;9.48;55.97;98870.38;31215231;28;20532;-76
2022/04/07 23:39:54;;;;;;;12.93;7.33;;;;;;;9.46;58.01;98850.34;31204009;28;20429;-75
2022/04/07 23:54:56;;;;;;;15.80;8.97;;;;;;;9.65;60.00;98840.41;31202597;28;20057;-75
